createdAt,value
2023-03-12T00:02:47.595Z,99.90
2023-03-12T00:07:50.858Z,99.90
2023-03-12T00:12:53.572Z,99.90
2023-03-12T00:17:56.024Z,99.90
2023-03-12T00:22:58.779Z,99.90
2023-03-12T00:28:01.278Z,99.90
2023-03-12T00:33:04.068Z,99.90
2023-03-12T00:38:06.792Z,99.90
2023-03-12T00:43:09.356Z,99.90
2023-03-12T00:48:11.854Z,99.90
2023-03-12T00:53:14.447Z,99.90
2023-03-12T00:58:17.051Z,99.90
2023-03-12T01:03:20.183Z,99.90
2023-03-12T01:08:24.210Z,99.90
2023-03-12T01:13:26.969Z,99.90
2023-03-12T01:18:29.640Z,99.90
2023-03-12T01:23:32.846Z,99.90
2023-03-12T01:28:35.365Z,98.90
2023-03-12T01:33:38.080Z,99.90
2023-03-12T01:38:40.664Z,99.90
2023-03-12T01:43:43.451Z,99.90
2023-03-12T01:48:51.397Z,99.90
2023-03-12T01:53:57.885Z,99.90
2023-03-12T01:59:06.495Z,99.90
2023-03-12T02:04:09.654Z,99.90
2023-03-12T02:09:13.877Z,99.20
2023-03-12T02:14:16.806Z,99.90
2023-03-12T02:19:31.050Z,99.90
2023-03-12T02:24:36.100Z,99.90
2023-03-12T02:29:43.640Z,99.90
2023-03-12T02:34:48.149Z,99.90
2023-03-12T02:39:57.831Z,99.90
2023-03-12T02:45:01.727Z,99.90
2023-03-12T02:50:04.748Z,99.90
2023-03-12T02:55:08.951Z,99.90
2023-03-12T03:00:14.201Z,99.90
2023-03-12T03:05:21.680Z,99.90
2023-03-12T03:10:24.758Z,99.90
2023-03-12T03:15:27.545Z,99.90
2023-03-12T03:20:31.523Z,99.90
2023-03-12T03:25:34.661Z,99.90
2023-03-12T03:30:38.488Z,93.70
2023-03-12T03:35:42.984Z,99.90
2023-03-12T03:40:46.126Z,99.90
2023-03-12T03:45:49.372Z,99.90
2023-03-12T03:50:52.400Z,99.90
2023-03-12T03:55:55.223Z,99.90
2023-03-12T04:00:57.934Z,99.90
2023-03-12T04:06:03.230Z,96.90
2023-03-12T04:11:12.289Z,99.90
2023-03-12T04:16:15.936Z,99.90
2023-03-12T04:21:19.058Z,95.60
2023-03-12T04:26:24.482Z,99.90
2023-03-12T04:31:27.905Z,99.90
2023-03-12T04:36:30.590Z,99.90
2023-03-12T04:41:35.420Z,95.60
2023-03-12T04:46:43.886Z,99.90
2023-03-12T04:51:49.962Z,99.90
2023-03-12T04:56:54.235Z,99.90
2023-03-12T05:01:58.333Z,99.90
2023-03-12T05:07:04.469Z,99.90
2023-03-12T05:12:07.390Z,99.90
2023-03-12T05:17:10.341Z,99.90
2023-03-12T05:22:12.933Z,99.90
2023-03-12T05:27:15.635Z,99.90
2023-03-12T05:32:18.869Z,99.90
2023-03-12T05:37:21.705Z,99.90
2023-03-12T05:42:25.668Z,99.90
2023-03-12T05:47:31.072Z,99.90
2023-03-12T05:52:33.680Z,99.90
2023-03-12T05:57:36.400Z,99.90
2023-03-12T06:02:38.929Z,99.90
2023-03-12T06:07:41.968Z,99.90
2023-03-12T06:12:44.661Z,99.90
2023-03-12T06:17:47.329Z,99.90
2023-03-12T06:22:50.119Z,99.90
2023-03-12T06:27:52.625Z,99.90
2023-03-12T06:32:55.294Z,99.90
2023-03-12T06:37:57.842Z,99.90
2023-03-12T06:43:00.263Z,99.90
2023-03-12T06:48:02.841Z,99.90
2023-03-12T06:53:05.304Z,99.90
2023-03-12T06:58:07.858Z,99.90
2023-03-12T07:03:10.498Z,99.90
2023-03-12T07:08:13.676Z,99.90
2023-03-12T07:13:16.430Z,99.90
2023-03-12T07:18:19.003Z,99.90
2023-03-12T07:23:22.008Z,99.90
2023-03-12T07:28:24.646Z,99.90
2023-03-12T07:33:27.212Z,99.90
2023-03-12T07:38:30.024Z,99.90
2023-03-12T07:43:33.082Z,99.90
2023-03-12T07:48:35.774Z,98.80
2023-03-12T07:53:39.155Z,99.90
2023-03-12T07:58:41.817Z,99.20
2023-03-12T08:03:44.504Z,99.90
2023-03-12T08:08:47.015Z,99.90
2023-03-12T08:13:49.958Z,99.90
2023-03-12T08:18:52.567Z,99.90
2023-03-12T08:23:55.179Z,92.00
2023-03-12T08:29:00.221Z,80.80
2023-03-12T08:34:02.792Z,94.20
2023-03-12T08:39:05.424Z,93.80
2023-03-12T08:44:07.916Z,99.90
2023-03-12T08:49:10.451Z,95.60
2023-03-12T08:54:12.946Z,99.90
2023-03-12T08:59:15.496Z,99.90
2023-03-12T09:04:18.274Z,98.40
2023-03-12T09:09:20.836Z,99.90
2023-03-12T09:19:46.246Z,99.90
2023-03-12T09:24:48.820Z,62.20
2023-03-12T09:29:59.961Z,87.00
2023-03-12T09:35:03.451Z,72.70
2023-03-12T09:40:10.184Z,99.90
2023-03-12T09:45:28.553Z,92.30
2023-03-12T09:50:33.578Z,71.20
2023-03-12T09:55:40.014Z,91.40
2023-03-12T10:00:42.600Z,99.90
2023-03-12T10:06:04.583Z,99.90
2023-03-12T10:11:37.447Z,85.00
2023-03-12T10:16:46.675Z,95.90
2023-03-12T10:21:58.124Z,99.90
2023-03-12T10:27:01.999Z,81.90
2023-03-12T10:32:45.978Z,89.00
2023-03-12T10:37:53.638Z,52.80
2023-03-12T10:42:56.538Z,80.90
2023-03-12T10:48:07.219Z,44.50
2023-03-12T10:53:29.921Z,56.00
2023-03-12T10:58:54.104Z,65.10
2023-03-12T11:04:30.071Z,55.90
2023-03-12T11:09:33.052Z,73.90
2023-03-12T11:14:46.788Z,55.00
2023-03-12T11:19:49.334Z,52.50
2023-03-12T11:25:00.107Z,88.50
2023-03-12T11:30:05.974Z,72.70
2023-03-12T11:35:13.792Z,75.40
2023-03-12T11:40:49.287Z,38.80
2023-03-12T11:46:19.757Z,91.80
2023-03-12T11:51:43.825Z,50.20
2023-03-12T11:56:58.627Z,55.60
2023-03-12T12:02:50.843Z,96.10
2023-03-12T12:08:08.673Z,57.90
2023-03-12T12:13:32.536Z,49.50
2023-03-12T12:18:46.582Z,60.80
2023-03-12T12:24:01.336Z,66.00
2023-03-12T12:29:16.206Z,72.80
2023-03-12T12:34:24.751Z,50.70
2023-03-12T12:39:38.923Z,87.30
2023-03-12T12:44:46.573Z,83.20
2023-03-12T12:49:54.499Z,49.20
2023-03-12T12:55:30.006Z,86.70
2023-03-12T13:00:59.169Z,46.40
2023-03-12T13:06:04.619Z,54.30
2023-03-12T13:11:25.063Z,42.50
2023-03-12T13:16:35.386Z,55.10
2023-03-12T13:22:13.328Z,52.10
2023-03-12T13:27:40.314Z,59.90
2023-03-12T13:32:49.093Z,48.30
2023-03-12T13:37:51.647Z,46.10
2023-03-12T13:43:15.104Z,44.00
2023-03-12T13:48:20.993Z,38.20
2023-03-12T13:53:28.265Z,38.10
2023-03-12T13:58:31.897Z,38.60
2023-03-12T14:03:41.242Z,38.20
2023-03-12T14:09:24.343Z,44.60
2023-03-12T14:14:48.296Z,42.20
2023-03-12T14:20:18.783Z,43.40
2023-03-12T14:25:39.558Z,60.40
2023-03-12T14:31:05.754Z,45.10
2023-03-12T14:36:15.142Z,25.20
2023-03-12T14:41:23.151Z,59.90
2023-03-12T14:46:25.674Z,51.00
2023-03-12T14:51:31.169Z,43.70
2023-03-12T14:56:36.015Z,39.30
2023-03-12T15:01:40.366Z,37.70
2023-03-12T15:06:58.984Z,35.00
2023-03-12T15:12:18.790Z,38.50
2023-03-12T15:17:24.197Z,50.20
2023-03-12T15:22:30.110Z,46.00
2023-03-12T15:27:33.983Z,47.80
2023-03-12T15:32:36.542Z,38.70
2023-03-12T15:37:41.134Z,53.40
2023-03-12T15:42:47.081Z,39.40
2023-03-12T15:47:52.062Z,45.60
2023-03-12T15:53:03.336Z,58.00
2023-03-12T15:58:36.909Z,52.00
2023-03-12T16:03:40.964Z,49.60
2023-03-12T16:08:53.323Z,50.10
2023-03-12T16:14:18.372Z,76.50
2023-03-12T16:19:23.195Z,48.40
2023-03-12T16:29:33.539Z,68.60
2023-03-12T16:34:36.153Z,91.70
2023-03-12T16:39:39.160Z,85.50
2023-03-12T16:59:54.315Z,94.30
2023-03-12T17:04:56.954Z,95.70
2023-03-12T17:09:59.855Z,97.60
2023-03-12T17:15:05.141Z,99.00
2023-03-12T17:20:10.607Z,99.90
2023-03-12T17:25:26.198Z,99.90
2023-03-12T17:30:30.202Z,99.90
2023-03-12T17:35:33.432Z,99.90
2023-03-12T17:40:40.608Z,99.90
2023-03-12T17:45:43.404Z,99.90
2023-03-12T17:50:45.953Z,99.90
2023-03-12T17:55:48.525Z,99.90
2023-03-12T18:00:51.156Z,99.90
2023-03-12T18:05:53.803Z,99.90
2023-03-12T18:10:56.631Z,99.90
2023-03-12T18:15:59.668Z,99.90
2023-03-12T18:21:02.202Z,99.90
2023-03-12T18:26:05.593Z,99.90
2023-03-12T18:31:08.760Z,99.90
2023-03-12T18:36:11.770Z,99.90
2023-03-12T18:41:14.961Z,99.90
2023-03-12T18:46:19.055Z,99.90
2023-03-12T18:51:21.909Z,99.90
2023-03-12T18:56:24.408Z,99.90
2023-03-12T19:01:27.102Z,99.90
2023-03-12T19:06:35.041Z,99.90
2023-03-12T19:11:43.500Z,99.90
2023-03-12T19:16:45.995Z,99.90
2023-03-12T19:21:49.205Z,99.90
2023-03-12T19:26:51.787Z,99.90
2023-03-12T19:31:54.808Z,99.90
2023-03-12T19:36:57.392Z,99.90
2023-03-12T19:41:59.986Z,99.90
2023-03-12T19:47:07.057Z,99.90
2023-03-12T19:52:10.282Z,99.90
2023-03-12T19:57:12.769Z,99.90
2023-03-12T20:02:15.688Z,99.90
2023-03-12T20:07:18.527Z,99.90
2023-03-12T20:12:21.178Z,99.90
2023-03-12T20:17:23.713Z,99.90
2023-03-12T20:22:26.313Z,99.90
2023-03-12T20:27:28.871Z,99.90
2023-03-12T20:32:31.600Z,99.90
2023-03-12T20:37:34.143Z,99.90
2023-03-12T20:42:36.728Z,99.90
2023-03-12T20:47:40.411Z,99.90
2023-03-12T20:52:45.097Z,99.90
2023-03-12T20:57:47.673Z,99.90
2023-03-12T21:02:50.234Z,99.90
2023-03-12T21:07:53.817Z,99.90
2023-03-12T21:12:56.469Z,99.90
2023-03-12T21:17:59.010Z,99.90
2023-03-12T21:23:01.708Z,99.90
2023-03-12T21:28:06.322Z,99.90
2023-03-12T21:33:08.904Z,99.90
2023-03-12T21:38:12.121Z,99.90
2023-03-12T21:43:14.718Z,99.90
2023-03-12T21:48:17.270Z,99.90
2023-03-12T21:53:23.861Z,99.90
2023-03-12T21:58:28.333Z,99.90
2023-03-12T22:03:30.873Z,99.90
2023-03-12T22:08:34.156Z,99.90
2023-03-12T22:13:37.543Z,99.90
2023-03-12T22:18:42.824Z,99.90
2023-03-12T22:23:48.105Z,99.90
2023-03-12T22:28:53.138Z,99.90
2023-03-12T22:33:56.924Z,99.90
2023-03-12T22:38:59.538Z,99.90
2023-03-12T22:44:05.539Z,99.90
2023-03-12T22:49:08.241Z,99.90
2023-03-12T22:54:12.135Z,99.90
2023-03-12T22:59:14.703Z,99.90
2023-03-12T23:04:17.394Z,99.90
2023-03-12T23:09:20.028Z,99.90
2023-03-12T23:14:22.757Z,99.90
2023-03-12T23:19:25.221Z,99.90
2023-03-12T23:24:32.970Z,99.90
2023-03-12T23:29:35.896Z,99.90
2023-03-12T23:34:38.431Z,99.90
2023-03-12T23:39:53.920Z,99.90
2023-03-12T23:44:57.215Z,99.90
2023-03-12T23:49:59.849Z,99.90
2023-03-12T23:55:02.364Z,99.90
